Time;durP1;ratioP1;P1;durP2;ratioP2;P2;SDS_P1;SDS_P2;PMS_P1;PMS_P2;Temp;Humidity;BMP_temperature;BMP_pressure;BME280_temperature;BME280_humidity;BME280_pressure;Samples;Min_cycle;Max_cycle;Signal;HPM_P1;HPM_P2
2023/02/06 00:00:55;;;;;;;25.50;13.70;;;;;;;;;;5000367;28;20756;-73
2023/02/06 00:03:23;;;;;;;26.17;12.83;;;;;;;;;;4999869;28;20484;-74
2023/02/06 00:05:57;;;;;;;30.07;12.27;;;;;;;;;;5001128;28;20456;-73
2023/02/06 00:08:25;;;;;;;23.50;13.70;;;;;;;;;;5000500;28;20459;-74
2023/02/06 00:10:53;;;;;;;23.53;12.87;;;;;;;;;;5001368;28;20452;-74
2023/02/06 00:13:21;;;;;;;22.43;12.80;;;;;;;;;;4984023;28;20468;-74
2023/02/06 00:15:50;;;;;;;22.07;13.23;;;;;;;;;;4981433;28;20521;-73
2023/02/06 00:18:21;;;;;;;25.73;12.43;;;;;;;;;;4981761;28;20496;-73
2023/02/06 00:20:49;;;;;;;20.77;13.43;;;;;;;;;;4981393;28;20460;-72
2023/02/06 00:23:17;;;;;;;22.70;11.67;;;;;;;;;;4981818;28;20988;-74
2023/02/06 00:25:46;;;;;;;25.63;12.70;;;;;;;;;;4982103;28;20483;-73
2023/02/06 00:28:13;;;;;;;24.27;13.23;;;;;;;;;;4989561;28;20456;-74
2023/02/06 00:30:41;;;;;;;21.30;13.10;;;;;;;;;;4999830;28;20841;-74
2023/02/06 00:33:10;;;;;;;23.90;11.20;;;;;;;;;;5000604;28;20486;-74
2023/02/06 00:35:38;;;;;;;23.57;13.00;;;;;;;;;;4999088;28;20456;-74
2023/02/06 00:38:06;;;;;;;24.83;13.40;;;;;;;;;;4993520;28;20461;-74
2023/02/06 00:40:34;;;;;;;22.83;13.70;;;;;;;;;;4993528;28;20923;-74
2023/02/06 00:43:02;;;;;;;21.10;13.10;;;;;;;;;;4999524;28;20900;-74
2023/02/06 00:45:30;;;;;;;21.80;13.27;;;;;;;;;;4999504;28;20453;-74
2023/02/06 00:47:58;;;;;;;23.77;11.77;;;;;;;;;;4998412;28;20562;-74
2023/02/06 00:50:27;;;;;;;27.90;13.40;;;;;;;;;;4999021;28;20467;-74
2023/02/06 00:52:55;;;;;;;19.57;11.40;;;;;;;;;;4999460;28;20453;-74
2023/02/06 00:55:23;;;;;;;20.70;12.93;;;;;;;;;;4999548;28;20441;-73
2023/02/06 00:57:51;;;;;;;26.63;12.20;;;;;;;;;;4998991;28;20448;-74
2023/02/06 01:00:21;;;;;;;21.93;12.50;;;;;;;;;;4998977;28;20534;-74
2023/02/06 01:02:50;;;;;;;18.83;12.40;;;;;;;;;;4998102;28;20480;-74
2023/02/06 01:05:19;;;;;;;25.30;12.90;;;;;;;;;;4996407;28;20452;-74
2023/02/06 01:07:48;;;;;;;27.27;13.77;;;;;;;;;;4999429;28;20452;-73
2023/02/06 01:10:16;;;;;;;25.47;12.27;;;;;;;;;;4998746;28;20448;-74
2023/02/06 01:12:44;;;;;;;20.00;12.57;;;;;;;;;;4999019;28;20483;-74
2023/02/06 01:15:14;;;;;;;18.00;11.47;;;;;;;;;;4999390;28;20449;-73
2023/02/06 01:17:42;;;;;;;18.90;12.23;;;;;;;;;;4997797;28;20539;-74
2023/02/06 01:20:11;;;;;;;23.13;11.87;;;;;;;;;;4998638;28;20762;-73
2023/02/06 01:22:39;;;;;;;19.87;12.97;;;;;;;;;;4998805;28;20554;-74
2023/02/06 01:25:09;;;;;;;20.77;11.87;;;;;;;;;;4997868;28;21086;-74
2023/02/06 01:27:37;;;;;;;21.60;11.97;;;;;;;;;;4998614;28;20456;-74
2023/02/06 01:30:07;;;;;;;16.73;10.20;;;;;;;;;;4998415;28;20448;-74
2023/02/06 01:32:36;;;;;;;22.20;12.10;;;;;;;;;;4998431;28;20463;-74
2023/02/06 01:35:04;;;;;;;21.97;11.60;;;;;;;;;;4998699;28;20452;-74
2023/02/06 01:37:32;;;;;;;20.67;11.07;;;;;;;;;;4998237;28;20543;-73
2023/02/06 01:40:00;;;;;;;18.83;11.23;;;;;;;;;;4998197;28;20490;-74
2023/02/06 01:42:29;;;;;;;20.40;10.60;;;;;;;;;;4979608;28;20553;-73
2023/02/06 01:45:15;;;;;;;23.33;11.40;;;;;;;;;;4992961;28;20558;-73
2023/02/06 01:47:43;;;;;;;21.93;12.33;;;;;;;;;;4997982;28;20490;-74
2023/02/06 01:50:11;;;;;;;17.73;10.90;;;;;;;;;;4998178;28;20456;-74
2023/02/06 01:52:38;;;;;;;15.90;10.60;;;;;;;;;;4997864;28;20448;-74
2023/02/06 01:55:06;;;;;;;21.70;11.10;;;;;;;;;;4998420;28;20822;-73
2023/02/06 01:57:38;;;;;;;19.87;11.33;;;;;;;;;;4999102;28;20878;-74
2023/02/06 02:00:09;;;;;;;19.83;10.90;;;;;;;;;;4997655;28;20453;-74
2023/02/06 02:02:38;;;;;;;14.80;8.43;;;;;;;;;;4998397;28;20480;-74
2023/02/06 02:05:08;;;;;;;16.97;9.57;;;;;;;;;;4997892;28;20908;-74
2023/02/06 02:07:37;;;;;;;20.63;10.13;;;;;;;;;;4998033;28;20456;-74
2023/02/06 02:10:05;;;;;;;15.47;9.67;;;;;;;;;;4998076;28;20496;-73
2023/02/06 02:12:33;;;;;;;14.50;9.60;;;;;;;;;;4996791;28;20448;-74
2023/02/06 02:15:02;;;;;;;17.80;10.90;;;;;;;;;;4997843;28;20471;-72
2023/02/06 02:17:34;;;;;;;14.63;9.60;;;;;;;;;;4997022;28;20463;-74
2023/02/06 02:20:17;;;;;;;14.70;9.17;;;;;;;;;;4992234;28;20486;-73
2023/02/06 02:22:52;;;;;;;19.07;9.00;;;;;;;;;;4998460;28;20919;-73
2023/02/06 02:25:39;;;;;;;21.37;10.40;;;;;;;;;;4997548;28;20467;-73
2023/02/06 02:28:16;;;;;;;13.37;8.70;;;;;;;;;;4997736;28;20466;-72
2023/02/06 02:31:02;;;;;;;17.83;9.70;;;;;;;;;;4998031;28;20688;-72
2023/02/06 02:33:44;;;;;;;14.27;9.00;;;;;;;;;;4998311;28;20452;-72
2023/02/06 02:36:17;;;;;;;14.10;9.30;;;;;;;;;;4998697;28;20471;-73
2023/02/06 02:38:51;;;;;;;18.90;10.43;;;;;;;;;;4998082;28;20460;-72
2023/02/06 02:41:27;;;;;;;15.43;9.90;;;;;;;;;;4997707;28;20436;-74
2023/02/06 02:43:59;;;;;;;21.90;10.53;;;;;;;;;;4998675;28;20497;-74
2023/02/06 02:46:30;;;;;;;18.90;10.57;;;;;;;;;;4998188;28;20452;-73
2023/02/06 02:49:01;;;;;;;19.90;9.67;;;;;;;;;;4997554;28;20472;-76
2023/02/06 02:51:30;;;;;;;18.90;8.70;;;;;;;;;;4997978;28;20858;-74
2023/02/06 02:53:58;;;;;;;14.70;9.07;;;;;;;;;;4998328;28;20467;-74
2023/02/06 02:56:26;;;;;;;23.27;9.97;;;;;;;;;;4997716;28;20448;-74
2023/02/06 02:58:56;;;;;;;16.00;9.20;;;;;;;;;;4998470;28;20587;-74
2023/02/06 03:01:26;;;;;;;13.90;9.10;;;;;;;;;;4997594;28;20831;-74
2023/02/06 03:04:00;;;;;;;14.60;9.20;;;;;;;;;;4997985;28;20487;-74
2023/02/06 03:06:35;;;;;;;17.30;9.60;;;;;;;;;;4998090;28;20452;-74
2023/02/06 03:09:06;;;;;;;16.53;8.20;;;;;;;;;;4995636;28;20723;-74
2023/02/06 03:11:34;;;;;;;17.73;8.23;;;;;;;;;;4991944;28;20452;-74
2023/02/06 03:14:04;;;;;;;18.50;9.50;;;;;;;;;;5001241;28;20514;-74
2023/02/06 03:16:36;;;;;;;16.10;8.30;;;;;;;;;;5002477;28;20456;-74
2023/02/06 03:19:06;;;;;;;17.67;8.13;;;;;;;;;;5001754;28;20460;-74
2023/02/06 03:21:36;;;;;;;19.50;8.70;;;;;;;;;;5001943;28;20462;-74
2023/02/06 03:24:10;;;;;;;14.57;8.57;;;;;;;;;;5001681;28;20507;-74
2023/02/06 03:26:39;;;;;;;14.17;8.20;;;;;;;;;;5001664;28;20475;-73
2023/02/06 03:29:07;;;;;;;24.77;7.00;;;;;;;;;;5001327;28;20798;-74
2023/02/06 03:31:39;;;;;;;16.20;8.90;;;;;;;;;;5000201;28;20714;-74
2023/02/06 03:34:09;;;;;;;13.33;7.93;;;;;;;;;;5001343;28;20707;-74
2023/02/06 03:36:40;;;;;;;16.40;8.70;;;;;;;;;;5001145;28;20722;-74
2023/02/06 03:39:08;;;;;;;15.10;8.90;;;;;;;;;;5000549;28;20466;-72
2023/02/06 03:41:37;;;;;;;13.27;6.97;;;;;;;;;;5000998;28;20462;-74
2023/02/06 03:44:07;;;;;;;22.60;8.53;;;;;;;;;;5001010;28;20968;-74
2023/02/06 03:46:36;;;;;;;21.53;8.23;;;;;;;;;;5000903;28;20452;-74
2023/02/06 03:49:06;;;;;;;15.80;8.47;;;;;;;;;;5000691;28;20459;-74
2023/02/06 03:51:36;;;;;;;14.30;8.63;;;;;;;;;;5000139;28;20514;-74
2023/02/06 03:54:06;;;;;;;15.07;7.47;;;;;;;;;;5000827;28;20466;-74
2023/02/06 03:56:40;;;;;;;19.23;8.37;;;;;;;;;;5000243;28;20452;-74
2023/02/06 03:59:08;;;;;;;17.97;7.30;;;;;;;;;;5000032;28;20471;-74
2023/02/06 04:01:40;;;;;;;12.03;7.93;;;;;;;;;;4999536;28;20466;-74
2023/02/06 04:04:15;;;;;;;17.60;8.17;;;;;;;;;;5000445;28;20583;-74
2023/02/06 04:06:43;;;;;;;15.60;7.17;;;;;;;;;;5000028;28;20452;-74
2023/02/06 04:09:12;;;;;;;15.13;7.10;;;;;;;;;;4999536;28;20499;-75
2023/02/06 04:11:40;;;;;;;18.83;6.63;;;;;;;;;;4999896;28;20452;-74
2023/02/06 04:14:09;;;;;;;9.77;5.50;;;;;;;;;;4997185;28;20449;-74
2023/02/06 04:16:37;;;;;;;16.57;6.30;;;;;;;;;;4991585;28;20452;-74
2023/02/06 04:19:05;;;;;;;13.70;5.47;;;;;;;;;;4999959;28;20542;-73
2023/02/06 04:21:33;;;;;;;10.73;5.20;;;;;;;;;;4999253;28;20466;-72
2023/02/06 04:24:05;;;;;;;8.37;4.90;;;;;;;;;;4999118;28;20495;-74
2023/02/06 04:26:35;;;;;;;17.80;5.77;;;;;;;;;;4999184;28;20463;-74
2023/02/06 04:29:02;;;;;;;12.03;5.60;;;;;;;;;;4999751;28;20506;-74
2023/02/06 04:31:30;;;;;;;7.87;5.20;;;;;;;;;;4999152;28;20456;-74
2023/02/06 04:33:58;;;;;;;15.30;6.43;;;;;;;;;;4999364;28;20452;-74
2023/02/06 04:36:25;;;;;;;10.53;5.03;;;;;;;;;;5000700;28;20463;-74
2023/02/06 04:38:54;;;;;;;13.60;5.20;;;;;;;;;;4999462;28;20468;-74
2023/02/06 04:41:22;;;;;;;13.87;5.47;;;;;;;;;;4999741;28;20864;-74
2023/02/06 04:43:51;;;;;;;15.17;4.97;;;;;;;;;;4999173;28;20519;-74
2023/02/06 04:46:19;;;;;;;11.83;5.67;;;;;;;;;;4999714;28;20449;-73
2023/02/06 04:48:47;;;;;;;10.67;4.97;;;;;;;;;;5000013;28;20460;-74
2023/02/06 04:51:15;;;;;;;16.93;5.07;;;;;;;;;;4999482;28;20554;-74
2023/02/06 04:53:42;;;;;;;12.70;5.13;;;;;;;;;;4998901;28;20523;-73
2023/02/06 04:56:11;;;;;;;12.13;4.80;;;;;;;;;;4999875;28;20460;-74
2023/02/06 04:58:39;;;;;;;10.20;4.13;;;;;;;;;;4999644;28;20452;-74
2023/02/06 05:01:11;;;;;;;7.47;4.30;;;;;;;;;;4993028;28;20967;-74
2023/02/06 05:03:39;;;;;;;17.50;5.40;;;;;;;;;;4998958;28;20516;-75
2023/02/06 05:06:08;;;;;;;10.60;5.10;;;;;;;;;;4998613;28;20468;-75
2023/02/06 05:08:35;;;;;;;11.03;4.83;;;;;;;;;;4997926;28;21297;-74
2023/02/06 05:11:06;;;;;;;9.40;4.93;;;;;;;;;;4998918;28;20457;-73
2023/02/06 05:13:34;;;;;;;14.70;4.53;;;;;;;;;;4993833;28;20485;-74
2023/02/06 05:16:05;;;;;;;9.70;4.30;;;;;;;;;;4989571;28;20464;-74
2023/02/06 05:18:34;;;;;;;9.00;5.73;;;;;;;;;;4998062;28;20547;-74
2023/02/06 05:21:03;;;;;;;12.37;6.57;;;;;;;;;;4999319;28;20709;-72
2023/02/06 05:23:31;;;;;;;14.47;5.97;;;;;;;;;;4997922;28;20622;-74
2023/02/06 05:26:02;;;;;;;15.77;4.20;;;;;;;;;;4999092;28;20507;-73
2023/02/06 05:28:32;;;;;;;15.00;4.37;;;;;;;;;;4999640;28;20555;-74
2023/02/06 05:31:00;;;;;;;13.00;4.90;;;;;;;;;;4998215;28;20453;-74
2023/02/06 05:33:28;;;;;;;15.70;4.57;;;;;;;;;;4998527;28;20967;-74
2023/02/06 05:36:02;;;;;;;17.43;5.47;;;;;;;;;;4997922;28;20456;-73
2023/02/06 05:38:30;;;;;;;12.20;3.97;;;;;;;;;;4996654;28;20942;-74
2023/02/06 05:40:57;;;;;;;8.87;5.20;;;;;;;;;;4997772;28;20461;-74
2023/02/06 05:43:25;;;;;;;16.10;4.93;;;;;;;;;;4998278;28;20570;-75
2023/02/06 05:45:53;;;;;;;9.13;4.83;;;;;;;;;;4998258;28;20463;-74
2023/02/06 05:48:21;;;;;;;20.67;5.80;;;;;;;;;;4997929;28;20464;-74
2023/02/06 05:50:54;;;;;;;13.70;4.67;;;;;;;;;;4998628;28;20532;-75
2023/02/06 05:53:23;;;;;;;14.60;5.43;;;;;;;;;;4998644;28;20464;-74
2023/02/06 05:55:53;;;;;;;9.33;4.83;;;;;;;;;;4999007;28;20464;-75
2023/02/06 05:58:21;;;;;;;10.27;4.33;;;;;;;;;;4997924;28;20483;-75
2023/02/06 06:00:50;;;;;;;10.80;4.60;;;;;;;;;;4998333;28;20449;-75
2023/02/06 06:03:21;;;;;;;19.67;5.50;;;;;;;;;;4998310;28;20527;-73
2023/02/06 06:05:50;;;;;;;12.07;4.50;;;;;;;;;;4993884;28;20758;-75
2023/02/06 06:08:17;;;;;;;18.60;5.73;;;;;;;;;;4996886;28;20476;-75
2023/02/06 06:10:46;;;;;;;11.87;4.53;;;;;;;;;;4997565;28;20464;-74
2023/02/06 06:13:16;;;;;;;8.90;4.83;;;;;;;;;;4996713;28;20456;-74
2023/02/06 06:15:46;;;;;;;10.23;4.27;;;;;;;;;;4997497;28;20547;-75
2023/02/06 06:18:16;;;;;;;16.50;4.30;;;;;;;;;;4996191;28;20460;-75
2023/02/06 06:20:45;;;;;;;8.60;4.57;;;;;;;;;;4998037;28;20488;-75
2023/02/06 06:23:12;;;;;;;14.63;5.47;;;;;;;;;;4995289;28;20460;-75
2023/02/06 06:25:43;;;;;;;10.60;4.00;;;;;;;;;;4997043;28;20458;-75
2023/02/06 06:28:14;;;;;;;16.77;6.40;;;;;;;;;;4996580;28;20903;-75
2023/02/06 06:30:45;;;;;;;15.50;4.70;;;;;;;;;;4998330;28;20487;-76
2023/02/06 06:33:15;;;;;;;14.83;4.83;;;;;;;;;;4995508;28;20793;-73
2023/02/06 06:35:46;;;;;;;14.80;4.40;;;;;;;;;;4998387;28;20769;-75
2023/02/06 06:38:14;;;;;;;9.07;4.97;;;;;;;;;;4996648;28;20464;-75
2023/02/06 06:40:42;;;;;;;14.03;4.67;;;;;;;;;;4996926;28;20538;-75
2023/02/06 06:43:12;;;;;;;11.87;4.93;;;;;;;;;;4995686;28;20444;-75
2023/02/06 06:45:40;;;;;;;12.93;5.00;;;;;;;;;;4997603;28;20468;-74
2023/02/06 06:48:09;;;;;;;14.20;4.77;;;;;;;;;;4997211;28;20546;-75
2023/02/06 06:50:37;;;;;;;12.63;4.73;;;;;;;;;;4999649;28;20534;-75
2023/02/06 06:53:05;;;;;;;10.93;5.23;;;;;;;;;;4996404;28;20458;-75
2023/02/06 06:55:38;;;;;;;10.90;5.30;;;;;;;;;;4999877;28;20456;-75
2023/02/06 06:58:11;;;;;;;12.33;5.57;;;;;;;;;;4981490;28;20456;-76
2023/02/06 07:00:44;;;;;;;13.73;5.17;;;;;;;;;;4981504;28;20780;-76
2023/02/06 07:03:12;;;;;;;15.20;6.23;;;;;;;;;;4980634;28;20688;-74
2023/02/06 07:05:40;;;;;;;13.60;5.00;;;;;;;;;;4981343;28;20523;-75
2023/02/06 07:08:08;;;;;;;9.70;4.07;;;;;;;;;;4985636;28;20844;-74
2023/02/06 07:10:35;;;;;;;11.37;4.20;;;;;;;;;;4999736;28;20462;-75
2023/02/06 07:13:10;;;;;;;12.57;5.20;;;;;;;;;;4993882;28;20547;-76
2023/02/06 07:15:41;;;;;;;16.47;5.40;;;;;;;;;;4980049;28;20475;-75
2023/02/06 07:20:53;;;;;;;15.90;6.17;;;;;;;;;;4978367;28;20854;-75
2023/02/06 07:23:28;;;;;;;9.63;4.43;;;;;;;;;;4989214;28;20466;-75
2023/02/06 07:26:01;;;;;;;13.83;4.57;;;;;;;;;;4999763;28;20554;-73
2023/02/06 07:31:19;;;;;;;19.00;6.60;;;;;;;;;;4997529;28;20452;-73
2023/02/06 07:34:01;;;;;;;17.47;6.70;;;;;;;;;;4993388;28;20464;-74
2023/02/06 07:36:33;;;;;;;14.20;5.60;;;;;;;;;;4999907;28;20459;-74
2023/02/06 07:39:03;;;;;;;22.60;7.00;;;;;;;;;;4999352;28;20466;-76
2023/02/06 07:41:45;;;;;;;11.70;5.80;;;;;;;;;;4998828;28;20459;-72
2023/02/06 07:44:34;;;;;;;17.87;5.60;;;;;;;;;;4994695;28;20480;-76
2023/02/06 07:47:09;;;;;;;14.40;5.90;;;;;;;;;;4999958;28;20460;-73
2023/02/06 07:50:00;;;;;;;21.13;7.07;;;;;;;;;;5000181;28;20460;-75
2023/02/06 07:55:27;;;;;;;16.27;5.33;;;;;;;;;;4999022;28;20452;-73
2023/02/06 07:58:03;;;;;;;13.00;4.50;;;;;;;;;;4999694;28;20987;-73
2023/02/06 08:00:38;;;;;;;20.23;9.13;;;;;;;;;;4998397;28;20766;-73
2023/02/06 08:06:22;;;;;;;14.57;5.60;;;;;;;;;;4989547;28;20882;-74
2023/02/06 08:09:19;;;;;;;16.30;5.53;;;;;;;;;;4997443;28;20543;-73
2023/02/06 08:12:00;;;;;;;15.57;6.50;;;;;;;;;;4987278;28;20468;-74
2023/02/06 08:14:30;;;;;;;16.07;6.50;;;;;;;;;;4998999;28;20468;-74
2023/02/06 08:17:10;;;;;;;13.47;5.57;;;;;;;;;;4998475;28;20531;-74
2023/02/06 08:19:51;;;;;;;14.53;5.90;;;;;;;;;;4996941;28;20738;-73
2023/02/06 08:22:33;;;;;;;27.43;11.77;;;;;;;;;;4999623;28;20915;-73
2023/02/06 08:25:10;;;;;;;11.40;4.70;;;;;;;;;;4980314;28;20501;-73
2023/02/06 08:27:39;;;;;;;14.13;5.00;;;;;;;;;;4988504;28;20460;-72
2023/02/06 08:30:10;;;;;;;12.33;4.93;;;;;;;;;;4994142;28;20457;-73
2023/02/06 08:32:46;;;;;;;9.63;5.67;;;;;;;;;;4996104;28;20486;-72
2023/02/06 08:35:19;;;;;;;11.27;4.20;;;;;;;;;;4993426;28;20455;-72
2023/02/06 08:37:47;;;;;;;9.57;4.60;;;;;;;;;;4981780;28;20538;-73
2023/02/06 08:40:37;;;;;;;16.73;4.40;;;;;;;;;;4996789;28;20467;-73
2023/02/06 08:43:11;;;;;;;10.83;5.00;;;;;;;;;;4997912;28;20479;-73
2023/02/06 08:45:54;;;;;;;8.40;4.07;;;;;;;;;;4985010;28;20723;-73
2023/02/06 08:48:26;;;;;;;8.00;3.90;;;;;;;;;;4995959;28;20765;-72
2023/02/06 08:51:02;;;;;;;9.07;3.90;;;;;;;;;;4996629;28;20543;-72
2023/02/06 08:53:30;;;;;;;15.13;4.80;;;;;;;;;;4996672;28;20475;-73
2023/02/06 08:56:07;;;;;;;11.50;4.50;;;;;;;;;;4996547;28;20555;-72
2023/02/06 08:58:36;;;;;;;18.57;4.40;;;;;;;;;;4980449;28;20481;-73
2023/02/06 09:01:08;;;;;;;10.33;4.40;;;;;;;;;;4996884;28;20444;-73
2023/02/06 09:03:48;;;;;;;13.30;4.20;;;;;;;;;;4994734;28;20899;-73
2023/02/06 09:06:17;;;;;;;10.17;3.87;;;;;;;;;;4979612;28;20441;-73
2023/02/06 09:08:55;;;;;;;14.20;3.47;;;;;;;;;;4993017;28;20467;-73
2023/02/06 09:14:39;;;;;;;8.63;3.70;;;;;;;;;;4989920;28;20455;-73
2023/02/06 09:17:11;;;;;;;14.47;3.87;;;;;;;;;;4995515;28;20464;-72
2023/02/06 09:19:50;;;;;;;9.60;3.90;;;;;;;;;;4988029;28;20531;-73
2023/02/06 09:22:23;;;;;;;12.90;5.93;;;;;;;;;;4996306;28;20603;-73
2023/02/06 09:24:53;;;;;;;9.47;4.90;;;;;;;;;;4996758;28;20999;-73
2023/02/06 09:27:25;;;;;;;14.60;4.93;;;;;;;;;;5011441;28;20447;-73
2023/02/06 09:29:59;;;;;;;9.13;4.03;;;;;;;;;;5016035;28;20513;-73
2023/02/06 09:32:50;;;;;;;;;;;;;;;;;;;;;
2023/02/06 09:35:38;;;;;;;7.93;4.50;;;;;;;;;;5011595;28;20463;-73
2023/02/06 09:38:18;;;;;;;12.80;4.67;;;;;;;;;;5000796;28;20853;-74
2023/02/06 09:40:51;;;;;;;15.33;4.80;;;;;;;;;;5016499;28;20456;-75
2023/02/06 09:43:28;;;;;;;9.27;4.17;;;;;;;;;;5017146;28;20447;-75
2023/02/06 09:46:13;;;;;;;6.63;2.60;;;;;;;;;;5012516;28;20523;-75
2023/02/06 09:51:49;;;;;;;8.97;3.40;;;;;;;;;;5017161;28;20463;-74
2023/02/06 09:54:43;;;;;;;14.90;4.27;;;;;;;;;;4991408;28;20464;-74
2023/02/06 09:57:30;;;;;;;7.33;2.40;;;;;;;;;;4987642;28;21073;-73
2023/02/06 10:00:17;;;;;;;9.60;3.20;;;;;;;;;;5015676;28;20550;-74
2023/02/06 10:03:17;;;;;;;9.70;5.20;;;;;;;;;;5016575;28;20462;-74
2023/02/06 10:05:56;;;;;;;5.70;2.57;;;;;;;;;;5015893;28;20483;-74
2023/02/06 10:08:27;;;;;;;8.00;2.60;;;;;;;;;;5014731;28;20491;-73
2023/02/06 10:11:00;;;;;;;7.10;3.57;;;;;;;;;;5016727;28;20462;-73
2023/02/06 10:13:52;;;;;;;8.63;3.63;;;;;;;;;;5004196;28;20474;-73
2023/02/06 10:16:38;;;;;;;8.17;2.43;;;;;;;;;;5007971;28;20459;-74
2023/02/06 10:19:20;;;;;;;9.53;2.00;;;;;;;;;;5018459;28;20463;-75
2023/02/06 10:22:03;;;;;;;9.43;3.40;;;;;;;;;;5015708;28;20459;-73
2023/02/06 10:24:43;;;;;;;13.23;3.40;;;;;;;;;;5010829;28;20695;-73
2023/02/06 10:27:12;;;;;;;12.77;3.30;;;;;;;;;;5006307;28;20468;-73
2023/02/06 10:29:40;;;;;;;9.17;3.30;;;;;;;;;;4994232;28;20464;-74
2023/02/06 10:32:25;;;;;;;8.53;3.60;;;;;;;;;;4990402;28;20461;-74
2023/02/06 10:35:19;;;;;;;8.40;3.10;;;;;;;;;;4992555;28;20456;-74
2023/02/06 10:38:04;;;;;;;21.20;3.93;;;;;;;;;;4995925;28;20445;-75
2023/02/06 10:41:10;;;;;;;7.37;3.20;;;;;;;;;;4977610;28;20760;-75
2023/02/06 10:43:44;;;;;;;7.60;3.43;;;;;;;;;;4994042;28;20464;-74
2023/02/06 10:46:25;;;;;;;5.63;3.07;;;;;;;;;;4994186;28;20566;-73
2023/02/06 10:52:45;;;;;;;10.60;3.47;;;;;;;;;;4934446;29;20533;-73
2023/02/06 10:55:22;;;;;;;6.60;3.93;;;;;;;;;;4925837;29;20694;-74
2023/02/06 10:57:58;;;;;;;9.00;4.17;;;;;;;;;;5005476;28;20471;-72
2023/02/06 11:00:35;;;;;;;8.63;3.50;;;;;;;;;;4995537;28;20459;-73
2023/02/06 11:03:12;;;;;;;8.93;3.10;;;;;;;;;;4993333;28;20471;-73
2023/02/06 11:05:51;;;;;;;6.60;3.00;;;;;;;;;;4990276;28;20491;-73
2023/02/06 11:08:44;;;;;;;8.47;4.10;;;;;;;;;;4993353;28;20460;-73
2023/02/06 11:11:23;;;;;;;11.13;4.33;;;;;;;;;;4975491;28;20492;-74
2023/02/06 11:14:08;;;;;;;10.10;3.40;;;;;;;;;;4992062;28;20467;-73
2023/02/06 11:16:41;;;;;;;12.03;4.20;;;;;;;;;;4995919;28;20486;-73
2023/02/06 11:19:20;;;;;;;9.00;4.10;;;;;;;;;;4995008;28;20887;-74
2023/02/06 11:21:55;;;;;;;8.30;4.67;;;;;;;;;;4995741;28;20487;-73
2023/02/06 11:24:26;;;;;;;10.90;3.10;;;;;;;;;;4994961;28;20467;-71
2023/02/06 11:26:58;;;;;;;8.90;2.97;;;;;;;;;;4997024;28;20519;-73
2023/02/06 11:29:27;;;;;;;6.57;2.87;;;;;;;;;;4995844;28;21101;-71
2023/02/06 11:35:00;;;;;;;6.40;2.97;;;;;;;;;;4995916;28;21607;-72
2023/02/06 11:37:41;;;;;;;9.63;4.03;;;;;;;;;;4997968;28;20466;-73
2023/02/06 11:40:26;;;;;;;9.40;4.00;;;;;;;;;;4997989;28;20447;-74
2023/02/06 11:43:16;;;;;;;7.27;3.37;;;;;;;;;;4996779;28;20463;-74
2023/02/06 11:45:45;;;;;;;9.40;3.17;;;;;;;;;;4999207;28;20497;-74
2023/02/06 11:48:40;;;;;;;7.60;3.30;;;;;;;;;;4996449;28;20490;-74
2023/02/06 11:51:10;;;;;;;8.03;3.30;;;;;;;;;;4996995;28;20723;-74
2023/02/06 11:53:39;;;;;;;6.27;3.30;;;;;;;;;;4998070;28;20448;-74
2023/02/06 11:56:39;;;;;;;6.70;3.77;;;;;;;;;;4996893;28;20488;-75
2023/02/06 11:59:25;;;;;;;11.10;3.50;;;;;;;;;;5000324;28;20457;-73
2023/02/06 12:01:54;;;;;;;5.53;3.43;;;;;;;;;;4983702;28;20527;-74
2023/02/06 12:04:24;;;;;;;8.90;3.40;;;;;;;;;;4979280;28;20742;-74
2023/02/06 12:06:56;;;;;;;12.43;3.80;;;;;;;;;;4997794;28;20476;-74
2023/02/06 12:09:44;;;;;;;8.40;3.53;;;;;;;;;;5000043;28;20440;-75
2023/02/06 12:12:17;;;;;;;7.70;3.33;;;;;;;;;;4999930;28;20567;-74
2023/02/06 12:14:50;;;;;;;7.70;3.57;;;;;;;;;;4999211;28;20452;-74
2023/02/06 12:17:30;;;;;;;7.77;3.30;;;;;;;;;;4996276;28;20643;-75
2023/02/06 12:20:05;;;;;;;6.63;2.90;;;;;;;;;;4998251;28;20456;-75
2023/02/06 12:28:57;;;;;;;13.30;4.17;;;;;;;;;;4979997;28;20456;-75
2023/02/06 12:44:17;;;;;;;7.90;3.37;;;;;;;;;;4997866;28;20927;-73
2023/02/06 12:47:05;;;;;;;8.97;3.30;;;;;;;;;;5000005;28;20500;-73
2023/02/06 12:55:38;;;;;;;7.30;3.40;;;;;;;;;;4993668;28;20475;-75
2023/02/06 12:58:21;;;;;;;21.33;3.63;;;;;;;;;;4997732;28;20486;-75
2023/02/06 13:04:14;;;;;;;6.53;2.50;;;;;;;;;;4968952;28;20451;-74
2023/02/06 13:09:50;;;;;;;5.47;3.20;;;;;;;;;;4995952;28;20487;-74
2023/02/06 13:12:27;;;;;;;7.50;2.97;;;;;;;;;;4994292;28;20520;-73
2023/02/06 13:15:20;;;;;;;;;;;;;;;;;;;;;
2023/02/06 13:17:50;;;;;;;7.83;3.17;;;;;;;;;;4990340;28;20475;-73
2023/02/06 13:23:30;;;;;;;9.70;4.77;;;;;;;;;;4992295;28;20479;-75
2023/02/06 13:29:53;;;;;;;;;;;;;;;;;;;;;
2023/02/06 13:36:05;;;;;;;9.67;4.47;;;;;;;;;;4978285;28;20467;-73
2023/02/06 13:39:26;;;;;;;6.93;3.93;;;;;;;;;;4995287;28;20892;-75
2023/02/06 13:48:54;;;;;;;8.00;4.70;;;;;;;;;;4914240;29;20464;-74
2023/02/06 13:57:52;;;;;;;6.00;4.10;;;;;;;;;;4908029;29;20467;-75
2023/02/06 14:00:52;;;;;;;11.97;4.57;;;;;;;;;;4917144;29;20463;-74
2023/02/06 14:03:42;;;;;;;;;;;;;;;;;;;;;
2023/02/06 14:12:35;;;;;;;9.50;3.17;;;;;;;;;;4905325;29;20504;-73
2023/02/06 14:15:28;;;;;;;5.03;3.23;;;;;;;;;;4914839;29;20475;-73
2023/02/06 14:18:10;;;;;;;7.93;3.30;;;;;;;;;;4996516;28;20472;-74
2023/02/06 14:20:52;;;;;;;5.93;2.90;;;;;;;;;;4990878;28;20468;-73
2023/02/06 14:23:31;;;;;;;11.50;3.60;;;;;;;;;;4997193;28;20487;-76
2023/02/06 14:29:11;;;;;;;4.33;3.00;;;;;;;;;;4989013;28;20496;-75
2023/02/06 14:31:53;;;;;;;3.73;2.40;;;;;;;;;;4995038;28;21267;-75
2023/02/06 14:34:57;;;;;;;5.30;2.43;;;;;;;;;;4994534;28;20467;-73
2023/02/06 14:37:44;;;;;;;4.60;2.57;;;;;;;;;;4993949;28;20479;-73
2023/02/06 14:40:28;;;;;;;6.87;2.87;;;;;;;;;;4993234;28;20471;-75
2023/02/06 14:42:59;;;;;;;6.93;2.70;;;;;;;;;;4994044;28;20766;-74
2023/02/06 14:45:34;;;;;;;4.73;2.57;;;;;;;;;;4985340;28;20846;-74
2023/02/06 14:48:23;;;;;;;6.53;2.70;;;;;;;;;;4992152;28;20468;-74
2023/02/06 14:50:58;;;;;;;4.73;2.50;;;;;;;;;;4993030;28;20474;-74
2023/02/06 14:53:31;;;;;;;4.77;2.30;;;;;;;;;;4996318;28;20459;-73
2023/02/06 14:56:11;;;;;;;5.80;3.43;;;;;;;;;;4984227;28;20461;-74
2023/02/06 14:58:40;;;;;;;4.70;3.03;;;;;;;;;;4989292;28;20468;-74
2023/02/06 15:04:50;;;;;;;4.33;3.00;;;;;;;;;;4943156;28;20449;-74
2023/02/06 15:07:31;;;;;;;6.67;2.83;;;;;;;;;;4995098;28;20506;-75
2023/02/06 15:10:32;;;;;;;5.30;2.43;;;;;;;;;;4994887;28;20766;-75
2023/02/06 15:13:06;;;;;;;7.20;3.40;;;;;;;;;;4998930;28;20517;-74
2023/02/06 15:15:35;;;;;;;4.00;3.00;;;;;;;;;;4993601;28;20487;-75
2023/02/06 15:18:09;;;;;;;8.53;3.43;;;;;;;;;;4998696;28;20488;-76
2023/02/06 15:20:40;;;;;;;5.47;2.80;;;;;;;;;;4996668;28;20451;-75
2023/02/06 15:23:19;;;;;;;6.13;3.90;;;;;;;;;;4998644;28;20816;-74
2023/02/06 15:25:55;;;;;;;4.23;2.77;;;;;;;;;;4999267;28;20861;-76
2023/02/06 15:28:30;;;;;;;4.07;2.70;;;;;;;;;;4998581;28;20452;-73
2023/02/06 15:31:27;;;;;;;6.83;2.90;;;;;;;;;;4999603;28;21023;-74
2023/02/06 15:33:59;;;;;;;5.47;2.93;;;;;;;;;;5000156;28;20498;-74
2023/02/06 15:39:06;;;;;;;6.20;3.67;;;;;;;;;;5011411;28;20478;-74
2023/02/06 15:41:41;;;;;;;9.83;3.03;;;;;;;;;;4998790;28;20488;-74
2023/02/06 15:44:13;;;;;;;8.20;3.23;;;;;;;;;;4998593;28;20525;-75
2023/02/06 15:46:45;;;;;;;5.10;3.10;;;;;;;;;;4989775;28;20502;-75
2023/02/06 15:49:20;;;;;;;7.33;3.70;;;;;;;;;;4998613;28;20464;-75
2023/02/06 15:51:52;;;;;;;5.70;3.67;;;;;;;;;;4996948;28;20466;-75
2023/02/06 15:54:25;;;;;;;5.13;3.10;;;;;;;;;;4990840;28;20460;-76
2023/02/06 15:56:57;;;;;;;5.87;3.87;;;;;;;;;;4994725;28;20852;-74
2023/02/06 15:59:32;;;;;;;7.10;4.03;;;;;;;;;;4992134;28;20479;-75
2023/02/06 16:02:06;;;;;;;7.23;3.57;;;;;;;;;;4989379;28;20461;-75
2023/02/06 16:04:39;;;;;;;6.23;4.50;;;;;;;;;;4998388;28;20491;-74
2023/02/06 16:09:57;;;;;;;12.23;7.63;;;;;;;;;;4989798;28;20471;-75
2023/02/06 16:12:40;;;;;;;7.77;4.73;;;;;;;;;;4996094;28;20507;-75
2023/02/06 16:15:30;;;;;;;8.03;5.03;;;;;;;;;;4997885;28;20490;-76
2023/02/06 16:18:00;;;;;;;11.27;4.70;;;;;;;;;;4983560;28;20519;-74
2023/02/06 16:20:39;;;;;;;7.00;3.70;;;;;;;;;;4984118;28;21105;-76
2023/02/06 16:23:24;;;;;;;6.00;3.67;;;;;;;;;;4979436;28;20460;-76
2023/02/06 16:26:02;;;;;;;8.37;4.30;;;;;;;;;;4977794;28;20844;-76
2023/02/06 16:28:33;;;;;;;7.10;4.00;;;;;;;;;;4978809;28;20467;-75
2023/02/06 16:31:19;;;;;;;9.77;4.00;;;;;;;;;;4992157;28;20461;-77
2023/02/06 16:33:54;;;;;;;7.23;3.70;;;;;;;;;;4983990;28;20443;-77
2023/02/06 16:36:25;;;;;;;5.63;3.90;;;;;;;;;;4984927;28;20552;-75
2023/02/06 16:38:54;;;;;;;6.30;4.40;;;;;;;;;;4980963;28;20905;-75
2023/02/06 16:41:33;;;;;;;6.13;3.90;;;;;;;;;;4995866;28;20748;-75
2023/02/06 16:44:07;;;;;;;6.03;3.93;;;;;;;;;;4998096;28;20464;-75
2023/02/06 16:46:35;;;;;;;6.00;3.70;;;;;;;;;;4996335;28;20523;-74
2023/02/06 17:52:46;;;;;;;8.73;5.90;;;;;;;;;;4988567;28;20452;-75
2023/02/06 17:55:18;;;;;;;9.60;5.83;;;;;;;;;;4998230;28;20460;-77
2023/02/06 17:57:47;;;;;;;11.97;8.00;;;;;;;;;;4996957;28;20452;-74